sensor_id;sensor_type;location;lat;lon;timestamp;P1;durP1;ratioP1;P2;durP2;ratioP2
78372;SDS011;67656;52.074;4.758;2023-11-21T00:04:51;20.33;;;5.10;;
78372;SDS011;67656;52.074;4.758;2023-11-21T00:09:52;17.10;;;4.93;;
78372;SDS011;67656;52.074;4.758;2023-11-21T00:14:52;16.83;;;5.13;;
78372;SDS011;67656;52.074;4.758;2023-11-21T00:19:53;20.33;;;5.47;;
78372;SDS011;67656;52.074;4.758;2023-11-21T00:24:53;15.38;;;4.82;;
78372;SDS011;67656;52.074;4.758;2023-11-21T00:29:53;19.37;;;5.50;;
78372;SDS011;67656;52.074;4.758;2023-11-21T00:34:54;21.73;;;6.20;;
78372;SDS011;67656;52.074;4.758;2023-11-21T00:39:55;17.27;;;5.43;;
78372;SDS011;67656;52.074;4.758;2023-11-21T00:44:56;15.60;;;5.72;;
78372;SDS011;67656;52.074;4.758;2023-11-21T00:49:56;13.77;;;5.28;;
78372;SDS011;67656;52.074;4.758;2023-11-21T00:54:56;25.60;;;6.60;;
78372;SDS011;67656;52.074;4.758;2023-11-21T00:59:57;14.70;;;5.13;;
78372;SDS011;67656;52.074;4.758;2023-11-21T01:04:57;18.85;;;5.72;;
78372;SDS011;67656;52.074;4.758;2023-11-21T01:09:58;17.80;;;5.97;;
78372;SDS011;67656;52.074;4.758;2023-11-21T01:14:58;19.38;;;5.18;;
78372;SDS011;67656;52.074;4.758;2023-11-21T01:19:58;20.70;;;5.82;;
78372;SDS011;67656;52.074;4.758;2023-11-21T01:24:59;16.20;;;4.82;;
78372;SDS011;67656;52.074;4.758;2023-11-21T01:30:00;16.83;;;4.55;;
78372;SDS011;67656;52.074;4.758;2023-11-21T01:35:01;16.35;;;5.03;;
78372;SDS011;67656;52.074;4.758;2023-11-21T01:40:02;14.93;;;4.80;;
78372;SDS011;67656;52.074;4.758;2023-11-21T01:45:03;14.95;;;4.43;;
78372;SDS011;67656;52.074;4.758;2023-11-21T01:50:03;21.20;;;5.07;;
78372;SDS011;67656;52.074;4.758;2023-11-21T01:55:07;15.80;;;5.00;;
78372;SDS011;67656;52.074;4.758;2023-11-21T02:00:09;18.02;;;5.03;;
78372;SDS011;67656;52.074;4.758;2023-11-21T02:05:15;16.95;;;4.75;;
78372;SDS011;67656;52.074;4.758;2023-11-21T02:10:17;10.90;;;4.15;;
78372;SDS011;67656;52.074;4.758;2023-11-21T02:15:19;19.80;;;4.65;;
78372;SDS011;67656;52.074;4.758;2023-11-21T02:20:20;12.60;;;4.03;;
78372;SDS011;67656;52.074;4.758;2023-11-21T02:25:21;14.75;;;4.50;;
78372;SDS011;67656;52.074;4.758;2023-11-21T02:30:22;19.02;;;4.88;;
78372;SDS011;67656;52.074;4.758;2023-11-21T02:35:23;20.80;;;5.07;;
78372;SDS011;67656;52.074;4.758;2023-11-21T02:40:23;14.38;;;5.95;;
78372;SDS011;67656;52.074;4.758;2023-11-21T02:45:24;15.63;;;5.63;;
78372;SDS011;67656;52.074;4.758;2023-11-21T02:50:25;19.08;;;5.80;;
78372;SDS011;67656;52.074;4.758;2023-11-21T02:55:26;16.83;;;5.70;;
78372;SDS011;67656;52.074;4.758;2023-11-21T03:00:27;15.98;;;5.22;;
78372;SDS011;67656;52.074;4.758;2023-11-21T03:05:28;21.15;;;5.00;;
78372;SDS011;67656;52.074;4.758;2023-11-21T03:10:28;17.27;;;4.97;;
78372;SDS011;67656;52.074;4.758;2023-11-21T03:15:29;15.15;;;4.43;;
78372;SDS011;67656;52.074;4.758;2023-11-21T03:20:30;15.00;;;4.78;;
78372;SDS011;67656;52.074;4.758;2023-11-21T03:25:30;16.52;;;5.30;;
78372;SDS011;67656;52.074;4.758;2023-11-21T03:30:31;15.73;;;4.97;;
78372;SDS011;67656;52.074;4.758;2023-11-21T03:35:32;13.13;;;4.47;;
78372;SDS011;67656;52.074;4.758;2023-11-21T03:40:32;19.73;;;5.03;;
78372;SDS011;67656;52.074;4.758;2023-11-21T03:45:33;19.15;;;5.20;;
78372;SDS011;67656;52.074;4.758;2023-11-21T03:50:34;16.38;;;4.90;;
78372;SDS011;67656;52.074;4.758;2023-11-21T03:55:35;18.70;;;4.68;;
78372;SDS011;67656;52.074;4.758;2023-11-21T04:00:35;10.63;;;4.18;;
78372;SDS011;67656;52.074;4.758;2023-11-21T04:05:36;14.30;;;5.07;;
78372;SDS011;67656;52.074;4.758;2023-11-21T04:10:36;18.60;;;5.20;;
78372;SDS011;67656;52.074;4.758;2023-11-21T04:15:37;11.93;;;4.55;;
78372;SDS011;67656;52.074;4.758;2023-11-21T04:20:37;16.77;;;4.63;;
78372;SDS011;67656;52.074;4.758;2023-11-21T04:25:37;16.42;;;4.78;;
78372;SDS011;67656;52.074;4.758;2023-11-21T04:30:38;14.38;;;5.03;;
78372;SDS011;67656;52.074;4.758;2023-11-21T04:35:38;15.75;;;5.40;;
78372;SDS011;67656;52.074;4.758;2023-11-21T04:40:39;13.88;;;5.03;;
78372;SDS011;67656;52.074;4.758;2023-11-21T04:45:39;16.55;;;5.20;;
78372;SDS011;67656;52.074;4.758;2023-11-21T04:50:40;15.95;;;5.18;;
78372;SDS011;67656;52.074;4.758;2023-11-21T04:55:40;13.20;;;4.70;;
78372;SDS011;67656;52.074;4.758;2023-11-21T05:00:41;16.42;;;4.95;;
78372;SDS011;67656;52.074;4.758;2023-11-21T05:05:41;16.10;;;4.95;;
78372;SDS011;67656;52.074;4.758;2023-11-21T05:10:42;16.70;;;4.70;;
78372;SDS011;67656;52.074;4.758;2023-11-21T05:15:42;16.70;;;5.20;;
78372;SDS011;67656;52.074;4.758;2023-11-21T05:20:43;17.33;;;4.85;;
78372;SDS011;67656;52.074;4.758;2023-11-21T05:25:43;12.15;;;4.50;;
78372;SDS011;67656;52.074;4.758;2023-11-21T05:30:44;15.05;;;5.00;;
78372;SDS011;67656;52.074;4.758;2023-11-21T05:35:45;14.73;;;4.97;;
78372;SDS011;67656;52.074;4.758;2023-11-21T05:40:45;19.35;;;5.30;;
78372;SDS011;67656;52.074;4.758;2023-11-21T05:45:46;18.23;;;5.57;;
78372;SDS011;67656;52.074;4.758;2023-11-21T05:50:46;19.27;;;6.55;;
78372;SDS011;67656;52.074;4.758;2023-11-21T05:55:47;20.33;;;5.85;;
78372;SDS011;67656;52.074;4.758;2023-11-21T06:00:47;17.42;;;5.68;;
78372;SDS011;67656;52.074;4.758;2023-11-21T06:05:48;13.57;;;5.40;;
78372;SDS011;67656;52.074;4.758;2023-11-21T06:10:48;14.48;;;5.05;;
78372;SDS011;67656;52.074;4.758;2023-11-21T06:15:52;12.20;;;4.75;;
78372;SDS011;67656;52.074;4.758;2023-11-21T06:26:17;13.55;;;4.30;;
78372;SDS011;67656;52.074;4.758;2023-11-21T06:36:25;9.10;;;3.55;;
78372;SDS011;67656;52.074;4.758;2023-11-21T06:41:40;10.68;;;3.63;;
78372;SDS011;67656;52.074;4.758;2023-11-21T06:47:08;11.63;;;3.50;;
78372;SDS011;67656;52.074;4.758;2023-11-21T06:52:32;10.50;;;3.10;;
78372;SDS011;67656;52.074;4.758;2023-11-21T06:57:41;11.35;;;3.50;;
78372;SDS011;67656;52.074;4.758;2023-11-21T07:02:47;12.77;;;3.75;;
78372;SDS011;67656;52.074;4.758;2023-11-21T07:07:57;9.52;;;3.25;;
78372;SDS011;67656;52.074;4.758;2023-11-21T07:13:08;14.13;;;3.35;;
78372;SDS011;67656;52.074;4.758;2023-11-21T07:18:11;10.85;;;3.60;;
78372;SDS011;67656;52.074;4.758;2023-11-21T07:23:17;10.68;;;3.15;;
78372;SDS011;67656;52.074;4.758;2023-11-21T07:28:32;11.25;;;3.40;;
78372;SDS011;67656;52.074;4.758;2023-11-21T07:33:37;13.68;;;3.78;;
78372;SDS011;67656;52.074;4.758;2023-11-21T07:38:38;11.48;;;3.53;;
78372;SDS011;67656;52.074;4.758;2023-11-21T07:43:42;9.90;;;3.70;;
78372;SDS011;67656;52.074;4.758;2023-11-21T07:48:50;9.75;;;2.70;;
78372;SDS011;67656;52.074;4.758;2023-11-21T07:53:54;13.95;;;3.90;;
78372;SDS011;67656;52.074;4.758;2023-11-21T07:59:26;13.35;;;3.90;;
78372;SDS011;67656;52.074;4.758;2023-11-21T08:04:40;11.05;;;3.83;;
78372;SDS011;67656;52.074;4.758;2023-11-21T08:09:42;15.35;;;4.22;;
78372;SDS011;67656;52.074;4.758;2023-11-21T08:15:04;14.95;;;4.43;;
78372;SDS011;67656;52.074;4.758;2023-11-21T08:20:10;14.48;;;4.40;;
78372;SDS011;67656;52.074;4.758;2023-11-21T08:25:17;13.85;;;4.50;;
78372;SDS011;67656;52.074;4.758;2023-11-21T08:30:26;16.90;;;5.30;;
78372;SDS011;67656;52.074;4.758;2023-11-21T08:35:53;15.23;;;5.15;;
78372;SDS011;67656;52.074;4.758;2023-11-21T08:41:07;16.58;;;5.30;;
78372;SDS011;67656;52.074;4.758;2023-11-21T08:46:28;17.48;;;5.20;;
78372;SDS011;67656;52.074;4.758;2023-11-21T08:51:49;17.05;;;5.50;;
78372;SDS011;67656;52.074;4.758;2023-11-21T08:57:00;16.58;;;5.57;;
78372;SDS011;67656;52.074;4.758;2023-11-21T09:02:11;14.80;;;5.10;;
78372;SDS011;67656;52.074;4.758;2023-11-21T09:07:19;12.05;;;4.80;;
78372;SDS011;67656;52.074;4.758;2023-11-21T09:12:22;11.80;;;4.03;;
78372;SDS011;67656;52.074;4.758;2023-11-21T09:17:26;13.18;;;3.63;;
78372;SDS011;67656;52.074;4.758;2023-11-21T09:22:33;7.93;;;2.88;;
78372;SDS011;67656;52.074;4.758;2023-11-21T09:27:40;7.50;;;2.47;;
78372;SDS011;67656;52.074;4.758;2023-11-21T09:32:41;10.48;;;2.70;;
78372;SDS011;67656;52.074;4.758;2023-11-21T09:37:42;6.55;;;2.03;;
78372;SDS011;67656;52.074;4.758;2023-11-21T09:43:02;7.85;;;2.78;;
78372;SDS011;67656;52.074;4.758;2023-11-21T09:48:10;5.88;;;2.00;;
78372;SDS011;67656;52.074;4.758;2023-11-21T09:53:22;5.57;;;2.10;;
78372;SDS011;67656;52.074;4.758;2023-11-21T09:58:22;8.30;;;2.95;;
78372;SDS011;67656;52.074;4.758;2023-11-21T10:03:29;8.88;;;2.90;;
78372;SDS011;67656;52.074;4.758;2023-11-21T10:08:30;10.65;;;3.17;;
78372;SDS011;67656;52.074;4.758;2023-11-21T10:13:37;10.20;;;3.08;;
78372;SDS011;67656;52.074;4.758;2023-11-21T10:18:39;10.20;;;3.05;;
78372;SDS011;67656;52.074;4.758;2023-11-21T10:23:40;9.40;;;3.47;;
78372;SDS011;67656;52.074;4.758;2023-11-21T10:28:41;10.25;;;3.83;;
78372;SDS011;67656;52.074;4.758;2023-11-21T10:33:54;12.10;;;3.60;;
78372;SDS011;67656;52.074;4.758;2023-11-21T10:39:13;11.07;;;3.72;;
78372;SDS011;67656;52.074;4.758;2023-11-21T10:44:17;13.80;;;4.57;;
78372;SDS011;67656;52.074;4.758;2023-11-21T10:49:18;17.55;;;5.00;;
78372;SDS011;67656;52.074;4.758;2023-11-21T10:54:20;14.63;;;4.72;;
78372;SDS011;67656;52.074;4.758;2023-11-21T10:59:21;17.45;;;5.57;;
78372;SDS011;67656;52.074;4.758;2023-11-21T11:04:21;13.55;;;5.00;;
78372;SDS011;67656;52.074;4.758;2023-11-21T11:09:23;16.08;;;4.60;;
78372;SDS011;67656;52.074;4.758;2023-11-21T11:14:24;12.77;;;4.03;;
78372;SDS011;67656;52.074;4.758;2023-11-21T11:19:36;9.80;;;3.30;;
78372;SDS011;67656;52.074;4.758;2023-11-21T11:24:44;11.45;;;3.75;;
78372;SDS011;67656;52.074;4.758;2023-11-21T11:35:53;10.48;;;3.15;;
78372;SDS011;67656;52.074;4.758;2023-11-21T11:41:03;9.65;;;3.17;;
78372;SDS011;67656;52.074;4.758;2023-11-21T11:46:05;11.00;;;3.28;;
78372;SDS011;67656;52.074;4.758;2023-11-21T11:51:13;10.18;;;3.45;;
78372;SDS011;67656;52.074;4.758;2023-11-21T11:56:30;11.38;;;3.70;;
78372;SDS011;67656;52.074;4.758;2023-11-21T12:01:34;12.18;;;3.63;;
78372;SDS011;67656;52.074;4.758;2023-11-21T12:06:35;13.68;;;3.47;;
78372;SDS011;67656;52.074;4.758;2023-11-21T12:11:36;14.82;;;3.80;;
78372;SDS011;67656;52.074;4.758;2023-11-21T12:16:37;14.25;;;4.05;;
78372;SDS011;67656;52.074;4.758;2023-11-21T12:21:37;17.30;;;4.65;;
78372;SDS011;67656;52.074;4.758;2023-11-21T12:26:39;15.23;;;4.88;;
78372;SDS011;67656;52.074;4.758;2023-11-21T12:31:40;15.07;;;4.70;;
78372;SDS011;67656;52.074;4.758;2023-11-21T12:36:40;14.32;;;4.65;;
78372;SDS011;67656;52.074;4.758;2023-11-21T12:41:41;17.33;;;4.82;;
78372;SDS011;67656;52.074;4.758;2023-11-21T12:46:42;13.45;;;3.78;;
78372;SDS011;67656;52.074;4.758;2023-11-21T12:51:44;16.67;;;4.63;;
78372;SDS011;67656;52.074;4.758;2023-11-21T12:56:46;13.43;;;4.85;;
78372;SDS011;67656;52.074;4.758;2023-11-21T13:01:46;13.07;;;4.57;;
78372;SDS011;67656;52.074;4.758;2023-11-21T13:06:47;18.45;;;5.05;;
78372;SDS011;67656;52.074;4.758;2023-11-21T13:11:47;15.05;;;5.13;;
78372;SDS011;67656;52.074;4.758;2023-11-21T13:16:48;13.88;;;4.80;;
78372;SDS011;67656;52.074;4.758;2023-11-21T13:21:48;15.35;;;5.32;;
78372;SDS011;67656;52.074;4.758;2023-11-21T13:26:49;17.10;;;4.95;;
78372;SDS011;67656;52.074;4.758;2023-11-21T13:31:49;15.20;;;5.07;;
78372;SDS011;67656;52.074;4.758;2023-11-21T13:36:50;18.95;;;6.10;;
78372;SDS011;67656;52.074;4.758;2023-11-21T13:41:50;16.05;;;5.40;;
78372;SDS011;67656;52.074;4.758;2023-11-21T13:46:51;25.08;;;7.43;;
78372;SDS011;67656;52.074;4.758;2023-11-21T13:51:51;22.20;;;7.68;;
78372;SDS011;67656;52.074;4.758;2023-11-21T13:56:52;20.27;;;6.60;;
78372;SDS011;67656;52.074;4.758;2023-11-21T14:01:52;20.13;;;6.35;;
78372;SDS011;67656;52.074;4.758;2023-11-21T14:06:53;18.13;;;6.22;;
78372;SDS011;67656;52.074;4.758;2023-11-21T14:11:54;19.48;;;6.13;;
78372;SDS011;67656;52.074;4.758;2023-11-21T14:16:56;16.95;;;5.65;;
78372;SDS011;67656;52.074;4.758;2023-11-21T14:21:56;19.65;;;6.28;;
78372;SDS011;67656;52.074;4.758;2023-11-21T14:26:57;16.50;;;6.13;;
78372;SDS011;67656;52.074;4.758;2023-11-21T14:31:58;17.63;;;6.22;;
78372;SDS011;67656;52.074;4.758;2023-11-21T14:36:58;16.30;;;6.00;;
78372;SDS011;67656;52.074;4.758;2023-11-21T14:41:59;17.45;;;5.60;;
78372;SDS011;67656;52.074;4.758;2023-11-21T14:46:59;17.42;;;6.47;;
78372;SDS011;67656;52.074;4.758;2023-11-21T14:51:59;20.08;;;6.15;;
78372;SDS011;67656;52.074;4.758;2023-11-21T14:57:00;21.27;;;6.85;;
78372;SDS011;67656;52.074;4.758;2023-11-21T15:02:00;20.52;;;7.25;;
78372;SDS011;67656;52.074;4.758;2023-11-21T15:07:04;22.55;;;6.70;;
78372;SDS011;67656;52.074;4.758;2023-11-21T15:12:06;20.05;;;6.15;;
78372;SDS011;67656;52.074;4.758;2023-11-21T15:17:07;19.40;;;6.63;;
78372;SDS011;67656;52.074;4.758;2023-11-21T15:22:07;16.98;;;5.47;;
78372;SDS011;67656;52.074;4.758;2023-11-21T15:27:08;15.05;;;5.20;;
78372;SDS011;67656;52.074;4.758;2023-11-21T15:32:09;13.13;;;4.68;;
78372;SDS011;67656;52.074;4.758;2023-11-21T15:37:10;15.70;;;5.07;;
78372;SDS011;67656;52.074;4.758;2023-11-21T15:42:10;15.15;;;5.43;;
78372;SDS011;67656;52.074;4.758;2023-11-21T15:47:10;14.73;;;5.07;;
78372;SDS011;67656;52.074;4.758;2023-11-21T15:52:11;14.98;;;5.05;;
78372;SDS011;67656;52.074;4.758;2023-11-21T15:57:12;15.52;;;5.53;;
78372;SDS011;67656;52.074;4.758;2023-11-21T16:02:13;14.07;;;5.95;;
78372;SDS011;67656;52.074;4.758;2023-11-21T16:07:13;14.38;;;6.53;;
78372;SDS011;67656;52.074;4.758;2023-11-21T16:12:14;15.27;;;5.63;;
78372;SDS011;67656;52.074;4.758;2023-11-21T16:17:14;21.60;;;6.63;;
78372;SDS011;67656;52.074;4.758;2023-11-21T16:22:15;17.00;;;6.80;;
78372;SDS011;67656;52.074;4.758;2023-11-21T16:27:16;16.25;;;6.85;;
78372;SDS011;67656;52.074;4.758;2023-11-21T16:32:16;14.07;;;5.72;;
78372;SDS011;67656;52.074;4.758;2023-11-21T16:37:17;15.40;;;6.78;;
78372;SDS011;67656;52.074;4.758;2023-11-21T16:42:17;14.63;;;6.18;;
78372;SDS011;67656;52.074;4.758;2023-11-21T16:47:18;16.98;;;6.57;;
78372;SDS011;67656;52.074;4.758;2023-11-21T16:52:21;16.53;;;7.30;;
78372;SDS011;67656;52.074;4.758;2023-11-21T16:57:22;20.10;;;7.13;;
78372;SDS011;67656;52.074;4.758;2023-11-21T17:02:22;14.75;;;6.18;;
78372;SDS011;67656;52.074;4.758;2023-11-21T17:07:23;17.30;;;6.75;;
78372;SDS011;67656;52.074;4.758;2023-11-21T17:12:23;13.25;;;6.03;;
78372;SDS011;67656;52.074;4.758;2023-11-21T17:17:24;15.88;;;6.75;;
78372;SDS011;67656;52.074;4.758;2023-11-21T17:22:25;17.42;;;7.10;;
78372;SDS011;67656;52.074;4.758;2023-11-21T17:27:25;17.02;;;7.00;;
78372;SDS011;67656;52.074;4.758;2023-11-21T17:32:26;12.38;;;5.90;;
78372;SDS011;67656;52.074;4.758;2023-11-21T17:37:26;14.73;;;5.60;;
78372;SDS011;67656;52.074;4.758;2023-11-21T17:42:27;16.08;;;6.22;;
78372;SDS011;67656;52.074;4.758;2023-11-21T17:47:27;15.50;;;6.53;;
78372;SDS011;67656;52.074;4.758;2023-11-21T17:52:28;15.53;;;6.17;;
78372;SDS011;67656;52.074;4.758;2023-11-21T17:57:28;21.55;;;8.45;;
78372;SDS011;67656;52.074;4.758;2023-11-21T18:02:29;16.77;;;7.10;;
78372;SDS011;67656;52.074;4.758;2023-11-21T18:07:30;17.10;;;6.40;;
78372;SDS011;67656;52.074;4.758;2023-11-21T18:12:30;14.00;;;5.17;;
78372;SDS011;67656;52.074;4.758;2023-11-21T18:17:31;21.57;;;8.80;;
78372;SDS011;67656;52.074;4.758;2023-11-21T18:22:31;18.57;;;7.67;;
78372;SDS011;67656;52.074;4.758;2023-11-21T18:27:32;15.63;;;5.67;;
78372;SDS011;67656;52.074;4.758;2023-11-21T18:32:32;16.33;;;6.20;;
78372;SDS011;67656;52.074;4.758;2023-11-21T18:37:35;17.10;;;6.30;;
78372;SDS011;67656;52.074;4.758;2023-11-21T18:42:36;18.80;;;6.27;;
78372;SDS011;67656;52.074;4.758;2023-11-21T18:47:36;22.37;;;9.13;;
78372;SDS011;67656;52.074;4.758;2023-11-21T18:52:43;19.63;;;8.37;;
78372;SDS011;67656;52.074;4.758;2023-11-21T18:57:44;18.23;;;6.85;;
78372;SDS011;67656;52.074;4.758;2023-11-21T19:02:44;16.67;;;7.10;;
78372;SDS011;67656;52.074;4.758;2023-11-21T19:07:45;19.00;;;6.53;;
78372;SDS011;67656;52.074;4.758;2023-11-21T19:12:46;17.40;;;6.40;;
78372;SDS011;67656;52.074;4.758;2023-11-21T19:17:46;18.07;;;6.10;;
78372;SDS011;67656;52.074;4.758;2023-11-21T19:22:47;14.43;;;5.70;;
78372;SDS011;67656;52.074;4.758;2023-11-21T19:27:50;22.47;;;7.37;;
78372;SDS011;67656;52.074;4.758;2023-11-21T19:32:50;19.50;;;7.07;;
78372;SDS011;67656;52.074;4.758;2023-11-21T19:37:51;39.20;;;14.23;;
78372;SDS011;67656;52.074;4.758;2023-11-21T19:42:51;23.53;;;9.07;;
78372;SDS011;67656;52.074;4.758;2023-11-21T19:47:52;23.13;;;8.50;;
78372;SDS011;67656;52.074;4.758;2023-11-21T19:52:56;21.13;;;7.90;;
78372;SDS011;67656;52.074;4.758;2023-11-21T19:57:56;21.07;;;7.27;;
78372;SDS011;67656;52.074;4.758;2023-11-21T20:02:57;27.73;;;9.83;;
78372;SDS011;67656;52.074;4.758;2023-11-21T20:07:57;24.37;;;7.97;;
78372;SDS011;67656;52.074;4.758;2023-11-21T20:12:58;22.60;;;7.47;;
78372;SDS011;67656;52.074;4.758;2023-11-21T20:18:02;23.17;;;7.67;;
78372;SDS011;67656;52.074;4.758;2023-11-21T20:23:05;23.70;;;7.40;;
78372;SDS011;67656;52.074;4.758;2023-11-21T20:28:05;24.67;;;8.40;;
78372;SDS011;67656;52.074;4.758;2023-11-21T20:33:06;27.07;;;9.07;;
78372;SDS011;67656;52.074;4.758;2023-11-21T20:38:07;26.17;;;7.70;;
78372;SDS011;67656;52.074;4.758;2023-11-21T20:43:07;22.73;;;8.27;;
78372;SDS011;67656;52.074;4.758;2023-11-21T20:48:13;38.33;;;11.37;;
78372;SDS011;67656;52.074;4.758;2023-11-21T20:53:16;36.53;;;12.00;;
78372;SDS011;67656;52.074;4.758;2023-11-21T20:58:22;43.33;;;14.73;;
78372;SDS011;67656;52.074;4.758;2023-11-21T21:03:43;28.43;;;9.40;;
78372;SDS011;67656;52.074;4.758;2023-11-21T21:08:44;29.63;;;9.70;;
78372;SDS011;67656;52.074;4.758;2023-11-21T21:13:44;31.70;;;8.90;;
78372;SDS011;67656;52.074;4.758;2023-11-21T21:18:45;31.27;;;8.90;;
78372;SDS011;67656;52.074;4.758;2023-11-21T21:23:45;26.57;;;9.47;;
78372;SDS011;67656;52.074;4.758;2023-11-21T21:28:46;29.27;;;9.37;;
78372;SDS011;67656;52.074;4.758;2023-11-21T21:33:46;29.73;;;9.47;;
78372;SDS011;67656;52.074;4.758;2023-11-21T21:38:47;34.67;;;11.37;;
78372;SDS011;67656;52.074;4.758;2023-11-21T21:43:47;28.57;;;9.33;;
78372;SDS011;67656;52.074;4.758;2023-11-21T21:48:48;28.67;;;8.77;;
78372;SDS011;67656;52.074;4.758;2023-11-21T21:53:48;34.97;;;11.73;;
78372;SDS011;67656;52.074;4.758;2023-11-21T21:58:49;35.43;;;13.47;;
78372;SDS011;67656;52.074;4.758;2023-11-21T22:03:51;38.87;;;13.03;;
78372;SDS011;67656;52.074;4.758;2023-11-21T22:08:51;47.73;;;15.93;;
78372;SDS011;67656;52.074;4.758;2023-11-21T22:13:52;60.20;;;17.03;;
78372;SDS011;67656;52.074;4.758;2023-11-21T22:18:52;61.90;;;19.10;;
78372;SDS011;67656;52.074;4.758;2023-11-21T22:23:53;62.90;;;19.07;;
78372;SDS011;67656;52.074;4.758;2023-11-21T22:28:53;24.50;;;7.03;;
78372;SDS011;67656;52.074;4.758;2023-11-21T22:33:54;34.20;;;9.27;;
78372;SDS011;67656;52.074;4.758;2023-11-21T22:38:54;25.50;;;8.33;;
78372;SDS011;67656;52.074;4.758;2023-11-21T22:43:55;24.83;;;7.13;;
78372;SDS011;67656;52.074;4.758;2023-11-21T22:48:55;27.83;;;7.33;;
78372;SDS011;67656;52.074;4.758;2023-11-21T22:53:56;25.23;;;7.50;;
78372;SDS011;67656;52.074;4.758;2023-11-21T22:58:56;29.00;;;7.93;;
78372;SDS011;67656;52.074;4.758;2023-11-21T23:03:56;25.63;;;7.13;;
78372;SDS011;67656;52.074;4.758;2023-11-21T23:08:57;25.90;;;7.97;;
78372;SDS011;67656;52.074;4.758;2023-11-21T23:13:57;25.97;;;7.70;;
78372;SDS011;67656;52.074;4.758;2023-11-21T23:18:58;28.53;;;7.10;;
78372;SDS011;67656;52.074;4.758;2023-11-21T23:23:58;25.87;;;7.77;;
78372;SDS011;67656;52.074;4.758;2023-11-21T23:28:59;26.50;;;7.77;;
78372;SDS011;67656;52.074;4.758;2023-11-21T23:33:59;23.63;;;7.17;;
78372;SDS011;67656;52.074;4.758;2023-11-21T23:38:59;20.13;;;6.33;;
78372;SDS011;67656;52.074;4.758;2023-11-21T23:44:00;24.53;;;7.53;;
78372;SDS011;67656;52.074;4.758;2023-11-21T23:49:01;25.70;;;7.63;;
78372;SDS011;67656;52.074;4.758;2023-11-21T23:54:02;24.43;;;7.80;;
78372;SDS011;67656;52.074;4.758;2023-11-21T23:59:02;21.77;;;7.27;;
